createdAt,value
2023-05-22T00:00:37.081Z,81.71
2023-05-22T00:01:36.778Z,81.60
2023-05-22T00:02:36.854Z,81.10
2023-05-22T00:03:36.801Z,80.99
2023-05-22T00:04:36.733Z,80.90
2023-05-22T00:05:36.862Z,80.59
2023-05-22T00:06:37.128Z,80.29
2023-05-22T00:07:36.700Z,80.29
2023-05-22T00:08:36.685Z,79.72
2023-05-22T00:09:36.690Z,79.51
2023-05-22T00:10:36.805Z,79.58
2023-05-22T00:11:36.689Z,82.56
2023-05-22T00:12:36.640Z,82.76
2023-05-22T00:13:36.628Z,84.58
2023-05-22T00:14:36.603Z,85.19
2023-05-22T00:15:36.599Z,85.19
2023-05-22T00:16:36.619Z,83.37
2023-05-22T00:17:36.617Z,82.05
2023-05-22T00:18:36.555Z,81.64
2023-05-22T00:19:36.636Z,81.64
2023-05-22T00:20:36.696Z,80.63
2023-05-22T00:21:36.508Z,80.02
2023-05-22T00:22:36.482Z,80.06
2023-05-22T00:23:36.479Z,81.44
2023-05-22T00:24:36.459Z,82.15
2023-05-22T00:25:36.479Z,83.00
2023-05-22T00:26:36.445Z,83.91
2023-05-22T00:27:36.420Z,83.67
2023-05-22T00:28:36.410Z,82.39
2023-05-22T00:29:36.406Z,81.27
2023-05-22T00:30:36.585Z,80.26
2023-05-22T00:31:36.370Z,79.96
2023-05-22T00:32:36.437Z,79.45
2023-05-22T00:33:36.362Z,79.85
2023-05-22T00:34:36.513Z,81.07
2023-05-22T00:35:36.355Z,82.29
2023-05-22T00:36:36.312Z,82.50
2023-05-22T00:37:36.297Z,83.31
2023-05-22T00:38:36.278Z,84.12
2023-05-22T00:39:36.281Z,84.32
2023-05-22T00:40:36.349Z,83.00
2023-05-22T00:41:36.271Z,82.59
2023-05-22T00:42:36.216Z,81.38
2023-05-22T00:43:36.213Z,80.66
2023-05-22T00:44:36.197Z,80.40
2023-05-22T00:45:36.190Z,79.99
2023-05-22T00:46:36.249Z,81.01
2023-05-22T00:47:36.197Z,81.92
2023-05-22T00:48:36.146Z,80.60
2023-05-22T00:49:36.127Z,79.90
2023-05-22T00:50:36.221Z,79.49
2023-05-22T00:51:36.097Z,79.49
2023-05-22T00:52:36.092Z,79.49
2023-05-22T00:53:36.083Z,80.50
2023-05-22T00:54:36.062Z,79.69
2023-05-22T00:55:36.066Z,78.98
2023-05-22T00:56:36.040Z,78.67
2023-05-22T00:57:36.048Z,78.51
2023-05-22T00:58:36.005Z,78.10
2023-05-22T00:59:35.999Z,77.59
2023-05-22T01:00:36.224Z,77.29
2023-05-22T01:01:36.324Z,77.39
2023-05-22T01:02:36.020Z,78.71
2023-05-22T01:03:35.976Z,79.72
2023-05-22T01:04:35.926Z,79.42
2023-05-22T01:05:35.918Z,79.22
2023-05-22T01:06:35.906Z,78.98
2023-05-22T01:07:35.892Z,78.41
2023-05-22T01:08:35.875Z,78.30
2023-05-22T01:09:35.863Z,78.10
2023-05-22T01:10:35.862Z,77.80
2023-05-22T01:11:35.840Z,78.91
2023-05-22T01:12:35.824Z,78.81
2023-05-22T01:13:35.831Z,80.33
2023-05-22T01:14:35.794Z,80.94
2023-05-22T01:15:35.781Z,81.05
2023-05-22T01:16:35.794Z,81.86
2023-05-22T01:17:36.163Z,81.05
2023-05-22T01:18:35.749Z,79.72
2023-05-22T01:19:35.883Z,79.32
2023-05-22T01:20:35.726Z,78.61
2023-05-22T01:21:35.709Z,78.30
2023-05-22T01:22:35.689Z,78.20
2023-05-22T01:23:35.685Z,78.10
2023-05-22T01:24:35.665Z,78.00
2023-05-22T01:25:35.675Z,78.30
2023-05-22T01:26:35.635Z,78.64
2023-05-22T01:27:35.627Z,78.64
2023-05-22T01:28:35.610Z,78.10
2023-05-22T01:29:35.620Z,77.33
2023-05-22T01:30:35.587Z,77.43
2023-05-22T01:31:35.572Z,77.43
2023-05-22T01:32:35.626Z,77.43
2023-05-22T01:33:35.651Z,77.12
2023-05-22T01:34:35.552Z,75.90
2023-05-22T01:35:35.526Z,76.01
2023-05-22T01:36:35.508Z,77.43
2023-05-22T01:37:35.495Z,77.83
2023-05-22T01:38:35.495Z,78.04
2023-05-22T01:39:35.477Z,79.25
2023-05-22T01:40:35.454Z,79.05
2023-05-22T01:41:35.450Z,78.14
2023-05-22T01:42:35.427Z,78.04
2023-05-22T01:43:35.434Z,77.22
2023-05-22T01:44:35.410Z,76.82
2023-05-22T01:45:35.466Z,76.41
2023-05-22T01:46:35.379Z,76.41
2023-05-22T01:47:35.403Z,76.04
2023-05-22T01:48:35.358Z,75.63
2023-05-22T01:49:35.336Z,75.84
2023-05-22T01:50:35.326Z,76.82
2023-05-22T01:51:35.314Z,77.06
2023-05-22T01:52:35.325Z,77.53
2023-05-22T01:53:35.289Z,77.47
2023-05-22T01:54:35.322Z,77.16
2023-05-22T01:55:35.349Z,76.82
2023-05-22T01:56:35.252Z,77.43
2023-05-22T01:57:35.241Z,77.83
2023-05-22T01:58:35.225Z,77.77
2023-05-22T01:59:35.214Z,77.77
2023-05-22T02:00:35.196Z,77.47
2023-05-22T02:01:35.255Z,77.83
2023-05-22T02:02:35.208Z,78.95
2023-05-22T02:03:35.184Z,79.66
2023-05-22T02:04:35.135Z,80.82
2023-05-22T02:05:35.133Z,81.33
2023-05-22T02:06:35.109Z,80.62
2023-05-22T02:07:35.098Z,79.39
2023-05-22T02:08:35.086Z,78.85
2023-05-22T02:09:35.074Z,78.48
2023-05-22T02:10:35.061Z,78.38
2023-05-22T02:11:35.051Z,79.29
2023-05-22T02:12:35.037Z,79.25
2023-05-22T02:13:35.025Z,77.97
2023-05-22T02:14:35.019Z,77.47
2023-05-22T02:15:35.039Z,76.95
2023-05-22T02:16:34.978Z,77.16
2023-05-22T02:17:35.022Z,77.36
2023-05-22T02:18:34.952Z,77.47
2023-05-22T02:19:35.013Z,77.47
2023-05-22T02:20:34.929Z,77.47
2023-05-22T02:21:34.970Z,78.68
2023-05-22T02:22:34.906Z,78.99
2023-05-22T02:23:34.894Z,78.08
2023-05-22T02:24:34.888Z,77.47
2023-05-22T02:25:34.877Z,77.67
2023-05-22T02:26:35.054Z,77.67
2023-05-22T02:27:34.839Z,80.62
2023-05-22T02:28:34.825Z,80.72
2023-05-22T02:29:34.811Z,79.60
2023-05-22T02:30:34.810Z,78.89
2023-05-22T02:31:34.819Z,78.78
2023-05-22T02:32:34.890Z,79.09
2023-05-22T02:33:34.981Z,79.29
2023-05-22T02:34:34.754Z,80.21
2023-05-22T02:35:34.739Z,80.41
2023-05-22T02:36:34.736Z,79.50
2023-05-22T02:37:34.717Z,78.58
2023-05-22T02:38:34.696Z,78.68
2023-05-22T02:39:34.695Z,78.08
2023-05-22T02:40:34.672Z,76.86
2023-05-22T02:41:34.664Z,76.45
2023-05-22T02:42:34.643Z,76.14
2023-05-22T02:43:34.628Z,75.73
2023-05-22T02:44:34.616Z,75.84
2023-05-22T02:45:34.614Z,75.84
2023-05-22T02:46:34.647Z,75.84
2023-05-22T02:47:34.626Z,75.73
2023-05-22T02:48:34.564Z,76.45
2023-05-22T02:49:34.581Z,76.75
2023-05-22T02:50:34.564Z,77.67
2023-05-22T02:51:34.520Z,79.19
2023-05-22T02:52:34.512Z,79.09
2023-05-22T02:53:34.500Z,79.60
2023-05-22T02:54:34.484Z,79.50
2023-05-22T02:55:34.467Z,79.39
2023-05-22T02:56:34.458Z,79.60
2023-05-22T02:57:34.442Z,78.78
2023-05-22T02:58:34.427Z,77.97
2023-05-22T02:59:34.424Z,77.26
2023-05-22T03:00:34.410Z,76.25
2023-05-22T03:01:34.453Z,75.12
2023-05-22T03:02:34.571Z,75.12
2023-05-22T03:03:34.508Z,75.63
2023-05-22T03:04:34.355Z,76.55
2023-05-22T03:05:34.376Z,77.06
2023-05-22T03:06:34.360Z,75.12
2023-05-22T03:07:34.310Z,74.82
2023-05-22T03:08:34.301Z,75.43
2023-05-22T03:09:34.312Z,75.84
2023-05-22T03:10:34.265Z,75.33
2023-05-22T03:11:34.480Z,76.75
2023-05-22T03:12:34.244Z,75.84
2023-05-22T03:13:34.236Z,75.73
2023-05-22T03:14:34.227Z,75.33
2023-05-22T03:15:34.217Z,74.82
2023-05-22T03:16:34.277Z,74.31
2023-05-22T03:17:34.191Z,74.82
2023-05-22T03:18:34.173Z,74.21
2023-05-22T03:19:34.192Z,73.50
2023-05-22T03:20:34.140Z,73.50
2023-05-22T03:21:34.156Z,73.39
2023-05-22T03:22:34.109Z,73.09
2023-05-22T03:23:34.103Z,73.09
2023-05-22T03:24:34.289Z,73.09
2023-05-22T03:25:34.077Z,73.36
2023-05-22T03:26:34.069Z,73.67
2023-05-22T03:27:34.046Z,74.82
2023-05-22T03:28:34.065Z,74.41
2023-05-22T03:29:34.037Z,73.87
2023-05-22T03:30:34.024Z,73.70
2023-05-22T03:31:34.011Z,73.80
2023-05-22T03:32:34.051Z,73.39
2023-05-22T03:33:34.022Z,72.89
2023-05-22T03:34:33.966Z,72.89
2023-05-22T03:35:33.964Z,72.75
2023-05-22T03:36:34.039Z,72.55
2023-05-22T03:37:33.943Z,72.65
2023-05-22T03:38:33.907Z,72.75
2023-05-22T03:39:33.893Z,72.96
2023-05-22T03:40:33.877Z,74.38
2023-05-22T03:41:33.879Z,75.19
2023-05-22T03:42:33.861Z,74.68
2023-05-22T03:43:33.840Z,74.28
2023-05-22T03:44:33.845Z,74.07
2023-05-22T03:45:33.855Z,75.49
2023-05-22T03:46:33.840Z,75.60
2023-05-22T03:47:33.829Z,74.68
2023-05-22T03:48:33.793Z,74.28
2023-05-22T03:49:33.777Z,74.38
2023-05-22T03:50:33.747Z,74.48
2023-05-22T03:51:33.750Z,74.48
2023-05-22T03:52:33.729Z,74.58
2023-05-22T03:53:33.736Z,75.29
2023-05-22T03:54:33.706Z,75.40
2023-05-22T03:55:33.697Z,76.72
2023-05-22T03:56:33.696Z,77.94
2023-05-22T03:57:33.663Z,78.24
2023-05-22T03:58:33.643Z,78.85
2023-05-22T03:59:33.638Z,78.55
2023-05-22T04:00:33.621Z,78.34
2023-05-22T04:01:33.613Z,77.33
2023-05-22T04:02:33.650Z,77.63
2023-05-22T04:03:33.644Z,78.64
2023-05-22T04:04:33.824Z,78.75
2023-05-22T04:05:33.630Z,78.85
2023-05-22T04:06:33.536Z,78.75
2023-05-22T04:07:33.525Z,78.10
2023-05-22T04:08:33.508Z,78.04
2023-05-22T04:09:33.528Z,78.55
2023-05-22T04:10:33.492Z,78.04
2023-05-22T04:11:33.473Z,77.63
2023-05-22T04:12:33.459Z,77.33
2023-05-22T04:13:33.453Z,78.10
2023-05-22T04:14:33.434Z,78.34
2023-05-22T04:15:33.424Z,77.43
2023-05-22T04:16:33.443Z,77.02
2023-05-22T04:17:33.663Z,76.72
2023-05-22T04:18:33.376Z,76.31
2023-05-22T04:19:33.424Z,77.12
2023-05-22T04:20:33.350Z,77.63
2023-05-22T04:21:33.339Z,77.43
2023-05-22T04:22:33.337Z,78.04
2023-05-22T04:23:33.317Z,77.83
2023-05-22T04:24:33.296Z,78.55
2023-05-22T04:25:33.306Z,79.16
2023-05-22T04:26:33.282Z,79.02
2023-05-22T04:27:33.459Z,78.81
2023-05-22T04:28:33.252Z,79.32
2023-05-22T04:29:33.244Z,79.63
2023-05-22T04:30:33.218Z,79.02
2023-05-22T04:31:33.227Z,79.63
2023-05-22T04:32:33.232Z,79.12
2023-05-22T04:33:33.173Z,79.12
2023-05-22T04:34:33.164Z,78.61
2023-05-22T04:35:33.165Z,78.61
2023-05-22T04:36:33.145Z,78.41
2023-05-22T04:37:33.130Z,78.78
2023-05-22T04:38:33.115Z,78.67
2023-05-22T04:39:33.102Z,77.25
2023-05-22T04:40:33.089Z,77.76
2023-05-22T04:41:33.094Z,77.97
2023-05-22T04:42:33.058Z,77.36
2023-05-22T04:43:33.039Z,77.15
2023-05-22T04:44:33.030Z,77.32
2023-05-22T04:45:33.153Z,77.32
2023-05-22T04:46:33.060Z,76.81
2023-05-22T04:47:33.043Z,76.61
2023-05-22T04:48:32.980Z,77.01
2023-05-22T04:49:32.963Z,77.42
2023-05-22T04:50:33.087Z,77.62
2023-05-22T04:51:32.942Z,78.44
2023-05-22T04:52:32.921Z,78.70
2023-05-22T04:53:33.056Z,80.22
2023-05-22T04:54:32.896Z,80.73
2023-05-22T04:55:32.883Z,79.92
2023-05-22T04:56:36.997Z,80.22
2023-05-22T04:57:32.877Z,79.82
2023-05-22T04:58:32.849Z,79.35
2023-05-22T04:59:32.826Z,79.51
2023-05-22T05:00:32.845Z,80.02
2023-05-22T05:01:33.642Z,80.32
2023-05-22T05:02:32.934Z,79.31
2023-05-22T05:03:32.836Z,79.00
2023-05-22T05:04:32.773Z,78.70
2023-05-22T05:05:32.747Z,79.72
2023-05-22T05:06:32.737Z,79.21
2023-05-22T05:07:32.723Z,79.21
2023-05-22T05:08:32.953Z,78.77
2023-05-22T05:09:32.702Z,78.60
2023-05-22T05:10:32.683Z,78.36
2023-05-22T05:11:32.670Z,77.65
2023-05-22T05:12:32.653Z,78.66
2023-05-22T05:13:32.663Z,78.66
2023-05-22T05:14:32.628Z,78.16
2023-05-22T05:15:32.610Z,80.90
2023-05-22T05:16:32.651Z,80.39
2023-05-22T05:17:32.591Z,79.68
2023-05-22T05:18:32.873Z,79.98
2023-05-22T05:19:34.776Z,79.64
2023-05-22T05:20:32.546Z,80.55
2023-05-22T05:21:32.535Z,80.96
2023-05-22T05:22:32.525Z,80.76
2023-05-22T05:23:32.506Z,82.07
2023-05-22T05:24:32.491Z,82.98
2023-05-22T05:25:32.472Z,83.18
2023-05-22T05:26:32.462Z,82.98
2023-05-22T05:27:32.455Z,83.18
2023-05-22T05:28:32.447Z,83.09
2023-05-22T05:29:32.450Z,83.18
2023-05-22T05:30:32.434Z,82.68
2023-05-22T05:31:32.405Z,82.48
2023-05-22T05:32:32.431Z,82.58
2023-05-22T05:33:32.373Z,82.68
2023-05-22T05:34:32.368Z,84.06
2023-05-22T05:35:32.345Z,84.97
2023-05-22T05:36:32.337Z,84.36
2023-05-22T05:37:32.322Z,84.20
2023-05-22T05:38:32.307Z,83.90
2023-05-22T05:39:32.291Z,82.98
2023-05-22T05:40:32.278Z,83.59
2023-05-22T05:41:32.260Z,83.39
2023-05-22T05:42:32.286Z,83.29
2023-05-22T05:43:32.237Z,83.09
2023-05-22T05:44:32.228Z,82.75
2023-05-22T05:45:32.237Z,82.78
2023-05-22T05:46:32.283Z,82.84
2023-05-22T05:47:32.242Z,82.75
2023-05-22T05:48:32.178Z,81.43
2023-05-22T05:49:34.934Z,81.12
2023-05-22T05:50:32.155Z,81.23
2023-05-22T05:51:32.217Z,82.30
2023-05-22T05:52:32.121Z,83.35
2023-05-22T05:53:32.106Z,84.27
2023-05-22T05:54:32.102Z,84.22
2023-05-22T05:55:33.899Z,84.02
2023-05-22T05:56:32.071Z,83.41
2023-05-22T05:57:32.057Z,82.30
2023-05-22T05:58:32.045Z,84.42
2023-05-22T05:59:32.139Z,85.80
2023-05-22T06:00:32.020Z,86.31
2023-05-22T06:01:32.141Z,86.10
2023-05-22T06:02:32.023Z,85.80
2023-05-22T06:03:32.123Z,86.71
2023-05-22T06:04:31.954Z,86.82
2023-05-22T06:05:31.994Z,86.82
2023-05-22T06:06:31.931Z,86.91
2023-05-22T06:07:31.918Z,86.16
2023-05-22T06:08:31.904Z,87.08
2023-05-22T06:09:31.894Z,88.65
2023-05-22T06:10:31.880Z,89.56
2023-05-22T06:11:31.871Z,89.06
2023-05-22T06:12:32.031Z,89.66
2023-05-22T06:13:31.862Z,89.76
2023-05-22T06:14:31.828Z,89.40
2023-05-22T06:15:31.814Z,89.20
2023-05-22T06:16:31.896Z,89.97
2023-05-22T06:17:31.882Z,90.47
2023-05-22T06:18:31.780Z,89.61
2023-05-22T06:19:31.846Z,89.16
2023-05-22T06:20:31.757Z,88.75
2023-05-22T06:21:31.732Z,88.55
2023-05-22T06:22:31.746Z,88.75
2023-05-22T06:23:31.707Z,88.96
2023-05-22T06:24:31.694Z,89.56
2023-05-22T06:25:31.684Z,89.72
2023-05-22T06:26:32.060Z,90.53
2023-05-22T06:27:31.659Z,90.23
2023-05-22T06:28:31.644Z,90.23
2023-05-22T06:29:31.642Z,89.78
2023-05-22T06:30:43.440Z,90.19
2023-05-22T06:31:32.629Z,91.39
2023-05-22T06:32:31.828Z,91.05
2023-05-22T06:33:31.700Z,91.66
2023-05-22T06:34:31.627Z,91.31
2023-05-22T06:35:31.555Z,91.91
2023-05-22T06:36:31.543Z,92.12
2023-05-22T06:37:31.566Z,92.12
2023-05-22T06:38:31.519Z,93.43
2023-05-22T06:39:32.200Z,93.69
2023-05-22T06:40:31.534Z,93.49
2023-05-22T06:41:31.467Z,93.93
2023-05-22T06:42:31.457Z,93.93
2023-05-22T06:43:31.440Z,93.93
2023-05-22T06:44:31.431Z,93.13
2023-05-22T06:45:31.497Z,93.02
2023-05-22T06:46:31.512Z,92.22
2023-05-22T06:47:31.406Z,92.82
2023-05-22T06:48:31.377Z,92.62
2023-05-22T06:49:31.458Z,92.58
2023-05-22T06:50:31.353Z,92.78
2023-05-22T06:51:31.342Z,93.85
2023-05-22T06:52:31.323Z,93.95
2023-05-22T06:53:31.322Z,92.63
2023-05-22T06:54:31.301Z,93.14
2023-05-22T06:55:31.638Z,92.94
2023-05-22T06:56:31.284Z,93.19
2023-05-22T06:57:31.263Z,93.50
2023-05-22T06:58:31.487Z,93.50
2023-05-22T06:59:31.226Z,93.66
2023-05-22T07:00:31.221Z,95.07
2023-05-22T07:01:31.240Z,95.73
2023-05-22T07:02:31.279Z,96.03
2023-05-22T07:03:31.184Z,95.07
2023-05-22T07:04:31.171Z,95.48
2023-05-22T07:05:31.363Z,95.38
2023-05-22T07:06:31.162Z,96.89
2023-05-22T07:07:31.138Z,96.89
2023-05-22T07:08:31.116Z,96.78
2023-05-22T07:09:31.101Z,96.89
2023-05-22T07:10:31.381Z,96.69
2023-05-22T07:11:31.079Z,96.43
2023-05-22T07:12:31.058Z,95.83
2023-05-22T07:13:31.044Z,95.78
2023-05-22T07:14:31.030Z,94.92
2023-05-22T07:15:31.020Z,95.58
2023-05-22T07:16:31.080Z,95.88
2023-05-22T07:17:31.007Z,95.18
2023-05-22T07:18:30.983Z,95.78
2023-05-22T07:19:31.056Z,95.78
2023-05-22T07:20:30.958Z,95.84
2023-05-22T07:21:30.963Z,95.53
2023-05-22T07:22:30.925Z,95.84
2023-05-22T07:23:30.918Z,96.14
2023-05-22T07:24:30.911Z,96.34
2023-05-22T07:25:30.888Z,95.99
2023-05-22T07:26:30.874Z,95.75
2023-05-22T07:27:30.864Z,97.71
2023-05-22T07:28:30.850Z,97.20
2023-05-22T07:29:30.838Z,97.41
2023-05-22T07:30:30.820Z,97.20
2023-05-22T07:31:30.831Z,97.41
2023-05-22T07:32:30.840Z,97.46
2023-05-22T07:33:30.784Z,97.16
2023-05-22T07:34:30.784Z,97.52
2023-05-22T07:35:30.749Z,97.27
2023-05-22T07:36:30.739Z,96.97
2023-05-22T07:37:30.780Z,96.92
2023-05-22T07:38:31.170Z,97.67
2023-05-22T07:39:30.707Z,96.68
2023-05-22T07:40:30.697Z,95.84
2023-05-22T07:41:30.676Z,94.13
2023-05-22T07:42:30.670Z,94.69
2023-05-22T07:43:30.659Z,95.49
2023-05-22T07:44:30.638Z,95.49
2023-05-22T07:45:30.931Z,94.65
2023-05-22T07:46:30.652Z,93.60
2023-05-22T07:47:30.603Z,92.66
2023-05-22T07:48:30.585Z,89.12
2023-05-22T07:49:30.568Z,90.52
2023-05-22T07:50:30.664Z,88.88
2023-05-22T07:51:30.545Z,88.93
2023-05-22T07:52:30.546Z,84.35
2023-05-22T07:53:30.536Z,81.02
2023-05-22T07:54:30.708Z,84.97
2023-05-22T07:55:30.494Z,85.82
2023-05-22T07:56:30.484Z,80.44
2023-05-22T07:57:30.472Z,81.10
2023-05-22T07:58:30.459Z,78.28
2023-05-22T07:59:30.455Z,75.46
2023-05-22T08:00:30.434Z,75.95
2023-05-22T08:01:30.416Z,73.50
2023-05-22T08:02:30.517Z,65.82
2023-05-22T08:03:30.506Z,69.20
2023-05-22T08:04:30.438Z,67.67
2023-05-22T08:05:30.406Z,66.02
2023-05-22T08:06:30.349Z,65.66
2023-05-22T08:07:30.342Z,65.99
2023-05-22T08:08:31.806Z,64.62
2023-05-22T08:09:30.456Z,65.39
2023-05-22T08:10:46.392Z,66.61
2023-05-22T08:11:31.337Z,68.40
2023-05-22T08:12:30.283Z,70.19
2023-05-22T08:13:30.356Z,67.97
2023-05-22T08:14:30.252Z,66.88
2023-05-22T08:15:30.231Z,68.66
2023-05-22T08:16:30.414Z,67.07
2023-05-22T08:17:30.235Z,64.82
2023-05-22T08:18:30.500Z,67.77
2023-05-22T08:19:30.265Z,67.34
2023-05-22T08:20:30.232Z,66.02
2023-05-22T08:21:30.179Z,66.15
2023-05-22T08:22:30.143Z,67.01
2023-05-22T08:23:30.291Z,65.59
2023-05-22T08:24:30.120Z,64.11
2023-05-22T08:25:30.136Z,64.70
2023-05-22T08:26:31.465Z,62.82
2023-05-22T08:27:30.075Z,64.90
2023-05-22T08:28:30.070Z,65.09
2023-05-22T08:29:30.051Z,64.47
2023-05-22T08:30:30.077Z,64.11
2023-05-22T08:31:30.141Z,65.09
2023-05-22T08:32:31.380Z,67.18
2023-05-22T08:33:30.009Z,62.88
2023-05-22T08:34:30.048Z,62.62
2023-05-22T08:35:29.982Z,62.15
2023-05-22T08:36:29.975Z,64.04
2023-05-22T08:37:29.954Z,63.05
2023-05-22T08:38:29.950Z,63.08
2023-05-22T08:39:29.934Z,65.16
2023-05-22T08:40:29.965Z,66.35
2023-05-22T08:41:30.483Z,65.36
2023-05-22T08:42:29.945Z,66.02
2023-05-22T08:43:29.990Z,65.92
2023-05-22T08:44:29.929Z,67.41
2023-05-22T08:45:29.925Z,68.30
2023-05-22T08:46:30.015Z,66.35
2023-05-22T08:47:29.952Z,63.58
2023-05-22T08:48:29.876Z,61.50
2023-05-22T08:49:29.839Z,64.97
2023-05-22T08:50:29.806Z,62.96
2023-05-22T08:51:29.781Z,60.55
2023-05-22T08:52:29.827Z,62.33
2023-05-22T08:53:29.759Z,62.43
2023-05-22T08:54:29.746Z,63.62
2023-05-22T08:55:29.745Z,62.40
2023-05-22T08:56:29.857Z,58.72
2023-05-22T08:57:29.735Z,58.22
2023-05-22T08:58:29.701Z,59.44
2023-05-22T08:59:29.692Z,58.94
2023-05-22T09:00:29.686Z,60.52
2023-05-22T09:01:29.848Z,61.68
2023-05-22T09:02:29.694Z,61.05
2023-05-22T09:03:29.801Z,57.34
2023-05-22T09:04:29.628Z,56.99
2023-05-22T09:05:29.618Z,55.98
2023-05-22T09:06:29.618Z,56.84
2023-05-22T09:07:29.594Z,54.16
2023-05-22T09:08:29.584Z,54.28
2023-05-22T09:09:29.599Z,53.69
2023-05-22T09:10:29.551Z,53.42
2023-05-22T09:11:29.593Z,54.95
2023-05-22T09:12:29.528Z,55.89
2023-05-22T09:13:29.575Z,57.10
2023-05-22T09:14:29.510Z,58.65
2023-05-22T09:15:29.501Z,57.34
2023-05-22T09:16:29.538Z,56.92
2023-05-22T09:17:29.490Z,56.33
2023-05-22T09:18:29.465Z,57.22
2023-05-22T09:19:29.521Z,57.78
2023-05-22T09:20:29.435Z,56.99
2023-05-22T09:21:30.628Z,55.62
2023-05-22T09:22:29.470Z,54.11
2023-05-22T09:23:29.403Z,55.58
2023-05-22T09:24:29.395Z,55.56
2023-05-22T09:25:29.386Z,55.24
2023-05-22T09:26:29.368Z,54.82
2023-05-22T09:27:29.356Z,54.91
2023-05-22T09:28:29.343Z,54.64
2023-05-22T09:29:29.365Z,55.33
2023-05-22T09:30:29.319Z,55.04
2023-05-22T09:31:29.473Z,55.63
2023-05-22T09:32:29.331Z,55.08
2023-05-22T09:33:29.291Z,54.89
2023-05-22T09:34:29.269Z,53.51
2023-05-22T09:35:29.263Z,54.16
2023-05-22T09:36:29.252Z,55.09
2023-05-22T09:37:29.240Z,56.87
2023-05-22T09:38:29.236Z,57.95
2023-05-22T09:39:29.220Z,56.42
2023-05-22T09:40:29.206Z,54.74
2023-05-22T09:41:29.199Z,54.55
2023-05-22T09:42:29.188Z,54.72
2023-05-22T09:43:29.169Z,54.43
2023-05-22T09:44:29.153Z,53.76
2023-05-22T09:45:29.165Z,55.04
2023-05-22T09:46:29.181Z,52.65
2023-05-22T09:47:29.177Z,53.17
2023-05-22T09:48:29.120Z,53.69
2023-05-22T09:49:29.104Z,55.39
2023-05-22T09:50:29.087Z,53.91
2023-05-22T09:51:29.075Z,54.60
2023-05-22T09:52:29.062Z,54.72
2023-05-22T09:53:29.056Z,54.21
2023-05-22T09:54:29.090Z,54.36
2023-05-22T09:55:29.040Z,55.83
2023-05-22T09:56:38.600Z,55.71
2023-05-22T09:57:30.033Z,54.33
2023-05-22T09:58:28.992Z,55.91
2023-05-22T09:59:28.994Z,55.26
2023-05-22T10:00:28.968Z,53.44
2023-05-22T10:01:29.064Z,52.89
2023-05-22T10:02:29.020Z,51.96
2023-05-22T10:03:28.946Z,50.76
2023-05-22T10:04:28.953Z,52.69
2023-05-22T10:05:28.923Z,50.22
2023-05-22T10:06:28.904Z,49.14
2023-05-22T10:07:28.893Z,48.25
2023-05-22T10:08:28.977Z,49.82
2023-05-22T10:09:28.873Z,49.82
2023-05-22T10:10:28.854Z,50.02
2023-05-22T10:11:28.850Z,50.32
2023-05-22T10:12:29.034Z,49.14
2023-05-22T10:13:28.829Z,47.77
2023-05-22T10:14:29.640Z,49.08
2023-05-22T10:15:28.810Z,50.14
2023-05-22T10:16:28.854Z,51.64
2023-05-22T10:17:28.915Z,52.65
2023-05-22T10:18:28.763Z,53.12
2023-05-22T10:19:28.804Z,52.99
2023-05-22T10:20:28.764Z,50.51
2023-05-22T10:21:28.742Z,49.92
2023-05-22T10:22:28.730Z,50.14
2023-05-22T10:23:28.714Z,51.25
2023-05-22T10:24:28.700Z,52.53
2023-05-22T10:25:28.704Z,51.91
2023-05-22T10:26:28.682Z,52.18
2023-05-22T10:27:28.670Z,51.50
2023-05-22T10:28:28.653Z,51.17
2023-05-22T10:29:28.646Z,51.37
2023-05-22T10:30:28.637Z,48.79
2023-05-22T10:31:28.626Z,50.16
2023-05-22T10:32:28.656Z,51.25
2023-05-22T10:33:28.778Z,50.76
2023-05-22T10:34:28.607Z,49.16
2023-05-22T10:35:28.580Z,49.77
2023-05-22T10:36:28.573Z,50.09
2023-05-22T10:37:28.565Z,49.60
2023-05-22T10:38:28.639Z,49.53
2023-05-22T10:39:28.545Z,51.20
2023-05-22T10:40:28.540Z,50.39
2023-05-22T10:41:28.537Z,50.37
2023-05-22T10:42:28.517Z,49.21
2023-05-22T10:43:28.499Z,50.37
2023-05-22T10:44:28.788Z,49.80
2023-05-22T10:45:28.595Z,52.35
2023-05-22T10:46:28.607Z,50.98
2023-05-22T10:47:28.479Z,51.25
2023-05-22T10:48:28.449Z,50.54
2023-05-22T10:49:28.551Z,51.29
2023-05-22T10:50:28.418Z,49.53
2023-05-22T10:51:28.415Z,50.42
2023-05-22T10:52:28.389Z,49.41
2023-05-22T10:53:28.378Z,48.80
2023-05-22T10:54:28.365Z,49.48
2023-05-22T10:55:28.355Z,50.07
2023-05-22T10:56:28.351Z,48.41
2023-05-22T10:57:28.342Z,48.80
2023-05-22T10:58:28.354Z,48.72
2023-05-22T10:59:28.313Z,49.70
2023-05-22T11:00:28.312Z,48.55
2023-05-22T11:01:28.325Z,49.85
2023-05-22T11:02:28.360Z,50.44
2023-05-22T11:03:28.361Z,50.73
2023-05-22T11:04:28.301Z,50.76
2023-05-22T11:05:28.369Z,50.37
2023-05-22T11:06:28.236Z,51.64
2023-05-22T11:07:28.225Z,51.05
2023-05-22T11:08:28.199Z,51.84
2023-05-22T11:09:28.194Z,51.03
2023-05-22T11:10:28.180Z,51.12
2023-05-22T11:11:28.179Z,51.05
2023-05-22T11:12:28.157Z,50.76
2023-05-22T11:13:29.252Z,50.07
2023-05-22T11:14:28.147Z,50.46
2023-05-22T11:15:28.135Z,49.99
2023-05-22T11:16:28.175Z,50.39
2023-05-22T11:17:28.203Z,51.10
2023-05-22T11:18:28.095Z,51.17
2023-05-22T11:19:28.134Z,49.60
2023-05-22T11:20:28.071Z,51.10
2023-05-22T11:21:28.181Z,49.55
2023-05-22T11:22:28.047Z,50.46
2023-05-22T11:23:28.060Z,51.25
2023-05-22T11:24:28.065Z,50.76
2023-05-22T11:25:28.030Z,51.67
2023-05-22T11:26:28.282Z,50.68
2023-05-22T11:27:28.052Z,50.78
2023-05-22T11:28:27.984Z,51.30
2023-05-22T11:29:27.984Z,50.42
2023-05-22T11:30:27.964Z,51.50
2023-05-22T11:31:27.969Z,51.89
2023-05-22T11:32:27.938Z,52.06
2023-05-22T11:33:27.932Z,52.14
2023-05-22T11:34:28.074Z,50.56
2023-05-22T11:35:27.903Z,51.72
2023-05-22T11:36:27.904Z,50.83
2023-05-22T11:37:28.011Z,51.10
2023-05-22T11:38:27.880Z,49.33
2023-05-22T11:39:27.874Z,48.84
2023-05-22T11:40:27.847Z,49.46
2023-05-22T11:41:27.841Z,49.97
2023-05-22T11:42:27.826Z,50.56
2023-05-22T11:43:27.813Z,50.85
2023-05-22T11:44:27.862Z,50.76
2023-05-22T11:45:27.796Z,50.07
2023-05-22T11:46:27.861Z,50.37
2023-05-22T11:47:27.778Z,51.67
2023-05-22T11:48:27.753Z,50.46
2023-05-22T11:49:27.744Z,50.66
2023-05-22T11:50:40.967Z,51.45
2023-05-22T11:51:28.781Z,52.14
2023-05-22T11:52:27.714Z,50.37
2023-05-22T11:53:27.856Z,52.01
2023-05-22T11:54:27.689Z,51.89
2023-05-22T11:55:27.673Z,50.88
2023-05-22T11:56:27.661Z,49.90
2023-05-22T11:57:27.651Z,51.64
2023-05-22T11:58:27.634Z,47.71
2023-05-22T11:59:27.621Z,46.53
2023-05-22T12:00:27.647Z,48.21
2023-05-22T12:01:27.602Z,46.04
2023-05-22T12:02:27.696Z,47.25
2023-05-22T12:03:27.686Z,46.17
2023-05-22T12:04:27.563Z,46.78
2023-05-22T12:05:27.550Z,46.41
2023-05-22T12:06:27.559Z,48.27
2023-05-22T12:07:27.527Z,47.80
2023-05-22T12:08:27.517Z,47.63
2023-05-22T12:09:27.634Z,48.61
2023-05-22T12:10:27.491Z,47.44
2023-05-22T12:11:27.489Z,47.66
2023-05-22T12:12:27.460Z,47.75
2023-05-22T12:13:27.461Z,49.35
2023-05-22T12:14:27.440Z,50.14
2023-05-22T12:15:27.442Z,50.93
2023-05-22T12:16:27.492Z,51.03
2023-05-22T12:17:27.457Z,49.75
2023-05-22T12:18:27.405Z,49.65
2023-05-22T12:19:27.459Z,50.76
2023-05-22T12:20:27.366Z,50.16
2023-05-22T12:21:27.362Z,49.50
2023-05-22T12:22:27.357Z,50.38
2023-05-22T12:23:27.332Z,47.55
2023-05-22T12:24:27.352Z,49.13
2023-05-22T12:25:27.430Z,49.05
2023-05-22T12:26:27.295Z,50.73
2023-05-22T12:27:27.291Z,50.34
2023-05-22T12:28:27.515Z,51.62
2023-05-22T12:29:27.250Z,52.44
2023-05-22T12:30:27.251Z,51.35
2023-05-22T12:31:27.268Z,50.66
2023-05-22T12:32:27.261Z,51.47
2023-05-22T12:33:27.201Z,53.55
2023-05-22T12:34:27.194Z,53.15
2023-05-22T12:35:27.189Z,53.85
2023-05-22T12:36:27.177Z,54.44
2023-05-22T12:37:27.161Z,54.46
2023-05-22T12:38:27.148Z,54.66
2023-05-22T12:39:27.133Z,54.36
2023-05-22T12:40:27.126Z,52.48
2023-05-22T12:41:27.226Z,53.97
2023-05-22T12:42:27.104Z,53.87
2023-05-22T12:43:27.098Z,53.77
2023-05-22T12:44:27.064Z,51.42
2023-05-22T12:45:27.052Z,52.71
2023-05-22T12:46:27.062Z,51.42
2023-05-22T12:47:27.114Z,55.08
2023-05-22T12:48:27.224Z,53.89
2023-05-22T12:49:27.007Z,53.99
2023-05-22T12:50:27.000Z,54.19
2023-05-22T12:51:27.012Z,55.18
2023-05-22T12:52:26.986Z,53.40